Time;durP1;ratioP1;P1;durP2;ratioP2;P2;SDS_P1;SDS_P2;PMS_P1;PMS_P2;Temp;Humidity;BMP_temperature;BMP_pressure;BME280_temperature;BME280_humidity;BME280_pressure;Samples;Min_cycle;Max_cycle;Signal;HPM_P1;HPM_P2
2023/09/08 00:00:16;;;;;;;7.00;6.30;;;;;;;20.24;68.81;95711.78;5009086;28;20230;-86
2023/09/08 00:02:42;;;;;;;10.15;6.43;;;;;;;20.07;69.95;95746.75;5003642;28;20294;-86
2023/09/08 00:05:10;;;;;;;7.03;6.25;;;;;;;20.10;69.94;95756.75;5008900;28;20230;-85
2023/09/08 00:07:36;;;;;;;8.13;7.22;;;;;;;20.14;69.72;95745.59;5009235;28;20207;-85
2023/09/08 00:10:04;;;;;;;7.43;6.72;;;;;;;20.20;69.46;95738.66;5008713;28;20552;-85
2023/09/08 00:12:31;;;;;;;7.13;6.40;;;;;;;20.25;68.95;95725.66;5008951;28;20210;-85
2023/09/08 00:14:57;;;;;;;6.70;6.07;;;;;;;20.23;68.46;95707.59;5008752;28;20245;-85
2023/09/08 00:17:24;;;;;;;7.22;6.45;;;;;;;20.19;68.43;95700.47;5008131;28;20206;-86
2023/09/08 00:19:50;;;;;;;7.30;6.30;;;;;;;20.00;69.20;95718.94;5002599;28;20636;-85
2023/09/08 00:22:17;;;;;;;10.85;6.38;;;;;;;19.85;69.96;95739.53;5000740;28;20202;-85
2023/09/08 00:24:43;;;;;;;10.48;6.57;;;;;;;19.67;70.84;95761.38;5008937;28;20330;-85
2023/09/08 00:27:11;;;;;;;6.70;6.10;;;;;;;19.31;73.06;95805.97;5009250;28;20203;-85
2023/09/08 00:29:38;;;;;;;7.07;6.47;;;;;;;19.13;74.02;95827.72;5008993;28;20671;-85
2023/09/08 00:32:05;;;;;;;7.15;6.45;;;;;;;19.12;74.35;95833.97;5008609;28;20855;-85
2023/09/08 00:34:31;;;;;;;7.28;6.60;;;;;;;19.11;74.47;95829.75;5004743;28;20221;-85
2023/09/08 00:37:00;;;;;;;6.82;6.20;;;;;;;19.24;73.80;95818.34;5008598;28;20214;-85
2023/09/08 00:39:26;;;;;;;6.70;6.10;;;;;;;19.32;73.42;95803.13;5008010;28;20651;-85
2023/09/08 00:41:53;;;;;;;7.32;6.45;;;;;;;19.40;73.02;95798.59;5008464;28;20210;-85
2023/09/08 00:44:21;;;;;;;8.70;6.32;;;;;;;19.48;72.59;95783.38;5008187;28;20222;-85
2023/09/08 00:46:47;;;;;;;7.55;6.68;;;;;;;19.52;72.17;95771.50;5008273;28;20209;-85
2023/09/08 00:49:14;;;;;;;7.18;6.47;;;;;;;19.54;71.88;95772.06;5008413;28;20202;-85
2023/09/08 00:51:40;;;;;;;6.85;6.15;;;;;;;19.61;71.93;95770.13;5005307;28;20211;-85
2023/09/08 00:54:07;;;;;;;7.00;6.30;;;;;;;19.64;71.59;95768.84;5005308;28;20225;-85
2023/09/08 00:56:34;;;;;;;7.03;6.22;;;;;;;19.63;71.00;95754.22;4969735;28;20237;-85
2023/09/08 00:59:02;;;;;;;7.05;6.18;;;;;;;19.55;70.98;95751.97;5007156;28;20711;-85
2023/09/08 01:01:30;;;;;;;6.90;6.30;;;;;;;19.57;71.02;95748.09;5008517;28;20598;-85
2023/09/08 01:03:56;;;;;;;6.47;5.97;;;;;;;19.64;70.59;95740.13;5007794;28;20199;-85
2023/09/08 01:06:24;;;;;;;6.97;6.28;;;;;;;19.55;70.74;95744.13;5003634;28;20204;-85
2023/09/08 01:08:51;;;;;;;6.88;6.05;;;;;;;19.48;70.79;95741.59;4995497;28;20679;-85
2023/09/08 01:11:19;;;;;;;7.05;6.28;;;;;;;19.49;70.47;95745.78;4988845;28;20588;-85
2023/09/08 01:13:45;;;;;;;7.13;6.53;;;;;;;19.41;71.06;95750.56;4988403;28;20226;-85
2023/09/08 01:16:12;;;;;;;6.30;5.80;;;;;;;19.36;71.10;95753.88;4988986;28;20207;-85
2023/09/08 01:18:40;;;;;;;6.90;5.53;;;;;;;19.38;71.30;95756.25;4990775;28;20201;-85
2023/09/08 01:21:23;;;;;;;6.63;6.07;;;;;;;19.41;71.31;95764.44;5007938;28;20765;-85
2023/09/08 01:24:05;;;;;;;7.65;5.97;;;;;;;19.38;71.31;95758.84;4999585;28;20560;-85
2023/09/08 01:26:37;;;;;;;6.53;5.90;;;;;;;19.43;70.83;95749.34;5008175;28;20230;-85
2023/09/08 01:29:06;;;;;;;6.75;6.15;;;;;;;19.47;70.61;95745.22;5007820;28;20626;-85
2023/09/08 01:31:32;;;;;;;7.07;6.38;;;;;;;19.43;70.58;95738.88;5008064;28;20221;-84
2023/09/08 01:33:59;;;;;;;6.82;6.22;;;;;;;19.42;70.63;95739.13;5008005;28;20207;-85
2023/09/08 01:36:26;;;;;;;8.98;6.20;;;;;;;19.40;70.37;95730.72;5007855;28;20194;-85
2023/09/08 01:38:52;;;;;;;7.95;6.20;;;;;;;19.38;70.09;95717.06;5004152;28;20218;-85
2023/09/08 01:41:19;;;;;;;7.13;6.45;;;;;;;19.33;70.41;95733.41;5006013;28;20253;-85
2023/09/08 01:43:46;;;;;;;8.15;6.45;;;;;;;19.30;70.37;95732.06;5007745;28;20210;-85
2023/09/08 01:46:13;;;;;;;7.10;6.10;;;;;;;19.15;70.93;95736.13;5008316;28;20203;-85
2023/09/08 01:48:40;;;;;;;6.85;6.25;;;;;;;19.04;71.36;95742.94;5007086;28;20202;-85
2023/09/08 01:51:06;;;;;;;6.38;5.80;;;;;;;19.04;71.71;95750.78;5007209;28;20211;-85
2023/09/08 01:53:33;;;;;;;6.93;5.88;;;;;;;19.07;71.35;95752.13;5008810;28;20549;-85
2023/09/08 01:55:59;;;;;;;7.03;6.32;;;;;;;18.97;71.43;95742.25;5006924;28;20219;-85
2023/09/08 01:58:26;;;;;;;6.57;6.07;;;;;;;18.94;71.54;95756.53;5011314;28;20215;-85
2023/09/08 02:00:54;;;;;;;7.10;6.50;;;;;;;18.88;72.03;95761.84;5010990;28;20859;-85
2023/09/08 02:03:21;;;;;;;6.53;5.93;;;;;;;18.93;72.04;95762.78;5011159;28;20202;-85
2023/09/08 02:05:47;;;;;;;6.47;5.88;;;;;;;19.05;71.48;95748.97;5011118;28;20242;-85
2023/09/08 02:08:14;;;;;;;6.50;5.90;;;;;;;19.03;71.55;95743.97;5011309;28;20229;-85
2023/09/08 02:10:41;;;;;;;6.28;5.75;;;;;;;18.94;71.98;95751.31;5008340;28;20198;-85
2023/09/08 02:13:07;;;;;;;8.10;5.82;;;;;;;18.94;71.41;95740.88;5009082;28;20207;-86
2023/09/08 02:15:36;;;;;;;6.78;5.78;;;;;;;18.93;71.30;95736.69;5011268;28;20223;-85
2023/09/08 02:18:04;;;;;;;6.72;5.88;;;;;;;18.91;71.28;95745.75;5010339;28;20796;-85
2023/09/08 02:20:30;;;;;;;6.70;5.47;;;;;;;18.90;71.54;95747.56;5010549;28;20708;-85
2023/09/08 02:22:57;;;;;;;6.50;5.80;;;;;;;18.91;71.19;95736.09;5011120;28;20210;-85
2023/09/08 02:25:24;;;;;;;7.68;5.70;;;;;;;18.94;71.17;95730.44;5011001;28;20222;-86
2023/09/08 02:27:50;;;;;;;6.35;5.78;;;;;;;18.91;71.01;95737.91;5008483;28;20649;-86
2023/09/08 02:30:17;;;;;;;6.55;5.90;;;;;;;18.86;70.87;95728.16;4997486;28;20203;-85
2023/09/08 02:32:43;;;;;;;5.88;5.38;;;;;;;18.88;70.79;95725.31;4992343;28;20207;-85
2023/09/08 02:35:11;;;;;;;6.35;5.45;;;;;;;18.75;71.18;95733.34;5010764;28;20223;-85
2023/09/08 02:37:37;;;;;;;6.22;5.53;;;;;;;18.74;71.06;95740.38;5010865;28;20221;-85
2023/09/08 02:40:05;;;;;;;6.47;5.50;;;;;;;18.69;71.47;95735.03;5010669;28;20571;-85
2023/09/08 02:42:32;;;;;;;6.97;5.90;;;;;;;18.58;72.27;95754.03;5003808;28;20547;-85
2023/09/08 02:44:58;;;;;;;7.35;6.65;;;;;;;18.49;72.46;95763.97;5003043;28;20222;-86
2023/09/08 02:47:25;;;;;;;7.88;7.03;;;;;;;18.51;72.38;95764.53;4998890;28;20200;-85
2023/09/08 02:49:51;;;;;;;8.40;7.32;;;;;;;18.60;72.09;95767.69;4989968;28;20238;-85
2023/09/08 02:52:19;;;;;;;8.70;7.20;;;;;;;18.51;72.62;95763.75;5010397;28;20214;-84
2023/09/08 02:54:46;;;;;;;8.02;7.22;;;;;;;18.48;72.66;95769.41;5010812;28;20223;-85
2023/09/08 02:57:12;;;;;;;9.85;7.65;;;;;;;18.51;72.92;95766.34;5010118;28;20210;-85
2023/09/08 02:59:39;;;;;;;8.95;6.72;;;;;;;18.60;71.82;95749.44;5004942;28;20196;-85
2023/09/08 03:02:05;;;;;;;6.85;6.25;;;;;;;18.69;71.39;95739.44;5009942;28;20633;-85
2023/09/08 03:04:32;;;;;;;7.50;6.80;;;;;;;18.73;71.04;95730.19;5008343;28;20218;-85
2023/09/08 03:06:58;;;;;;;6.57;5.97;;;;;;;18.67;71.11;95728.44;5010521;28;20203;-85
2023/09/08 03:09:26;;;;;;;6.57;5.97;;;;;;;18.70;71.03;95731.41;5009583;28;20660;-85
2023/09/08 03:11:52;;;;;;;6.78;6.07;;;;;;;18.61;71.13;95736.16;5010005;28;20203;-85
2023/09/08 03:14:19;;;;;;;7.38;5.78;;;;;;;18.56;71.22;95732.59;5009771;28;20225;-85
2023/09/08 03:16:45;;;;;;;6.68;5.70;;;;;;;18.44;71.75;95755.25;5005416;28;20202;-84
2023/09/08 03:19:11;;;;;;;8.20;6.13;;;;;;;18.38;72.27;95751.69;5008984;28;20198;-85
2023/09/08 03:21:38;;;;;;;8.30;7.40;;;;;;;18.40;72.11;95748.88;5009753;28;20234;-85
2023/09/08 03:24:05;;;;;;;7.20;5.93;;;;;;;18.42;71.87;95752.84;5009610;28;20206;-85
2023/09/08 03:26:33;;;;;;;6.75;6.15;;;;;;;18.47;71.52;95744.38;5009840;28;20198;-85
2023/09/08 03:29:00;;;;;;;6.68;6.00;;;;;;;18.50;71.39;95749.13;5008956;28;20375;-85
2023/09/08 03:31:27;;;;;;;6.57;5.82;;;;;;;18.53;71.37;95746.88;5004822;28;20203;-85
2023/09/08 03:33:53;;;;;;;6.30;5.72;;;;;;;18.51;71.47;95735.88;4996239;28;20213;-85
2023/09/08 03:36:20;;;;;;;7.07;5.47;;;;;;;18.49;71.28;95731.88;5009519;28;20207;-85
2023/09/08 03:38:46;;;;;;;6.28;5.68;;;;;;;18.49;71.27;95726.66;5009406;28;20217;-85
2023/09/08 03:41:13;;;;;;;5.97;5.47;;;;;;;18.39;71.54;95737.66;5005859;28;20223;-85
2023/09/08 03:43:40;;;;;;;6.50;5.88;;;;;;;18.35;71.76;95744.31;4993277;28;20203;-85
2023/09/08 03:46:07;;;;;;;6.30;5.70;;;;;;;18.26;71.94;95756.88;4993154;28;20216;-86
2023/09/08 03:48:33;;;;;;;6.68;5.88;;;;;;;18.24;72.18;95761.50;5001630;28;20205;-85
2023/09/08 03:51:00;;;;;;;7.28;5.80;;;;;;;18.27;72.44;95753.25;4997264;28;20208;-85
2023/09/08 03:53:26;;;;;;;6.60;5.90;;;;;;;18.37;71.89;95751.91;4997237;28;20412;-85
2023/09/08 03:55:53;;;;;;;7.10;5.63;;;;;;;18.35;71.56;95746.13;5009288;28;20619;-85
2023/09/08 03:58:19;;;;;;;7.45;5.50;;;;;;;18.25;72.55;95759.69;5008799;28;20591;-85
2023/09/08 04:00:47;;;;;;;8.57;5.63;;;;;;;18.36;72.02;95760.75;5009315;28;20226;-86
2023/09/08 04:03:13;;;;;;;7.63;5.75;;;;;;;18.40;71.47;95746.25;5009276;28;20210;-85
2023/09/08 04:05:40;;;;;;;6.47;5.88;;;;;;;18.38;71.34;95743.88;5002752;28;20266;-86
2023/09/08 04:08:06;;;;;;;6.30;5.32;;;;;;;18.36;71.67;95753.72;4989940;28;20895;-85
2023/09/08 04:10:33;;;;;;;9.88;5.72;;;;;;;18.38;71.55;95753.50;5009039;28;20195;-85
2023/09/08 04:12:59;;;;;;;6.70;5.28;;;;;;;18.34;71.82;95760.16;5008744;28;20203;-85
2023/09/08 04:15:26;;;;;;;7.18;5.53;;;;;;;18.33;71.71;95750.75;5009075;28;20230;-85
2023/09/08 04:17:54;;;;;;;7.85;5.85;;;;;;;18.29;71.74;95760.81;5007784;28;20199;-84
2023/09/08 04:20:21;;;;;;;6.03;5.53;;;;;;;18.29;71.45;95753.81;5004007;28;20250;-85
2023/09/08 04:22:47;;;;;;;6.55;5.97;;;;;;;18.24;71.48;95748.47;5008877;28;20325;-85
2023/09/08 04:25:14;;;;;;;6.50;5.82;;;;;;;18.15;71.91;95762.00;5008636;28;20222;-85
2023/09/08 04:27:40;;;;;;;6.05;5.32;;;;;;;18.19;71.52;95752.75;5008956;28;20571;-85
2023/09/08 04:30:08;;;;;;;5.82;5.28;;;;;;;18.10;71.76;95748.84;5008924;28;20731;-85
2023/09/08 04:32:34;;;;;;;7.10;5.72;;;;;;;18.03;72.23;95758.56;5008846;28;20203;-85
2023/09/08 04:35:02;;;;;;;6.22;5.63;;;;;;;17.91;72.47;95764.47;5003573;28;20218;-85
2023/09/08 04:37:30;;;;;;;7.30;5.65;;;;;;;17.97;72.42;95764.63;5002597;28;20203;-85
2023/09/08 04:39:56;;;;;;;6.03;5.15;;;;;;;17.94;72.90;95784.09;5005796;28;20199;-85
2023/09/08 04:42:23;;;;;;;6.32;5.78;;;;;;;18.00;72.73;95782.44;5008923;28;20218;-85
2023/09/08 04:44:50;;;;;;;7.05;5.68;;;;;;;18.00;72.96;95796.25;5012539;28;20227;-85
2023/09/08 04:47:16;;;;;;;5.70;5.20;;;;;;;18.07;72.43;95776.16;5012702;28;20212;-85
2023/09/08 04:49:43;;;;;;;5.70;5.20;;;;;;;18.09;71.70;95765.50;5011590;28;20195;-85
2023/09/08 04:52:12;;;;;;;5.63;5.22;;;;;;;18.03;72.00;95768.97;5005412;28;20850;-85
2023/09/08 04:54:39;;;;;;;6.05;5.43;;;;;;;18.09;72.31;95779.31;5003338;28;20258;-85
2023/09/08 04:57:05;;;;;;;5.93;5.38;;;;;;;18.25;71.26;95757.88;5010570;28;20664;-86
2023/09/08 04:59:32;;;;;;;5.95;5.45;;;;;;;18.33;71.86;95771.63;5010741;28;20205;-84
2023/09/08 05:01:59;;;;;;;5.97;5.47;;;;;;;18.40;70.83;95752.28;5012195;28;20225;-85
2023/09/08 05:04:25;;;;;;;6.70;5.53;;;;;;;18.56;71.26;95762.09;5010869;28;20777;-85
2023/09/08 05:06:52;;;;;;;5.38;4.88;;;;;;;18.68;70.98;95751.69;5009805;28;20202;-87
2023/09/08 05:09:19;;;;;;;5.38;4.97;;;;;;;18.87;70.25;95734.16;5000339;28;20238;-87
2023/09/08 05:11:46;;;;;;;6.95;5.28;;;;;;;18.96;69.73;95722.41;4991254;28;20196;-86
2023/09/08 05:14:12;;;;;;;5.90;5.38;;;;;;;18.94;68.89;95699.13;4990566;28;20231;-85
2023/09/08 05:16:45;;;;;;;6.72;6.10;;;;;;;18.93;69.19;95707.19;4998233;28;20203;-84
2023/09/08 05:19:11;;;;;;;6.43;5.93;;;;;;;18.84;69.29;95711.94;5009852;28;20227;-85
2023/09/08 05:21:38;;;;;;;6.35;5.65;;;;;;;18.70;69.63;95734.03;5014400;28;20226;-85
2023/09/08 05:24:05;;;;;;;7.38;5.80;;;;;;;18.70;69.94;95736.63;5012393;28;20210;-85
2023/09/08 05:26:36;;;;;;;6.50;5.82;;;;;;;18.70;70.10;95744.44;5012722;28;20202;-85
2023/09/08 05:29:02;;;;;;;9.13;6.65;;;;;;;18.63;70.59;95743.78;5011061;28;20577;-86
2023/09/08 05:31:29;;;;;;;9.07;6.03;;;;;;;18.60;70.73;95755.44;5012003;28;20206;-85
2023/09/08 05:34:04;;;;;;;10.10;6.53;;;;;;;18.58;71.31;95772.28;5010473;28;20210;-85
2023/09/08 05:36:31;;;;;;;9.82;6.93;;;;;;;18.48;71.81;95798.09;4993804;28;20226;-85
2023/09/08 05:38:57;;;;;;;7.95;6.88;;;;;;;18.55;71.84;95785.78;4997649;28;20205;-85
2023/09/08 05:41:23;;;;;;;9.60;6.40;;;;;;;18.61;71.99;95792.75;5004901;28;20233;-86
2023/09/08 05:43:53;;;;;;;8.60;6.53;;;;;;;18.67;71.99;95796.25;5009467;28;20209;-85
2023/09/08 05:46:21;;;;;;;13.25;11.93;;;;;;;18.70;71.77;95804.44;5011976;28;20202;-86
2023/09/08 05:48:50;;;;;;;21.48;19.17;;;;;;;18.77;71.90;95806.97;5011331;28;20191;-85
2023/09/08 05:51:16;;;;;;;12.73;10.85;;;;;;;18.73;73.33;95844.94;5011541;28;20207;-85
2023/09/08 05:53:43;;;;;;;9.75;8.60;;;;;;;18.78;72.79;95832.84;5011196;28;20203;-86
2023/09/08 05:56:11;;;;;;;10.88;8.35;;;;;;;18.78;73.09;95839.88;5007484;28;20226;-85
2023/09/08 05:58:37;;;;;;;9.43;7.82;;;;;;;18.80;73.07;95837.84;4994585;28;20254;-86
2023/09/08 06:01:06;;;;;;;8.73;7.40;;;;;;;18.85;72.46;95827.53;5011705;28;20199;-85
2023/09/08 06:03:33;;;;;;;8.75;7.85;;;;;;;18.87;72.62;95844.53;5011547;28;20523;-86
2023/09/08 06:06:00;;;;;;;8.05;7.30;;;;;;;18.96;72.21;95824.16;5011529;28;20313;-86
2023/09/08 06:08:26;;;;;;;8.40;7.13;;;;;;;19.01;71.81;95824.31;5011158;28;20571;-86
2023/09/08 06:10:53;;;;;;;7.63;7.03;;;;;;;19.00;71.76;95819.31;5011371;28;20241;-86
2023/09/08 06:13:19;;;;;;;7.80;7.00;;;;;;;19.01;71.80;95821.69;5006455;28;20590;-86
2023/09/08 06:15:46;;;;;;;8.65;7.60;;;;;;;19.05;72.08;95819.44;5010343;28;20230;-86
2023/09/08 06:18:13;;;;;;;8.60;7.80;;;;;;;19.04;71.92;95836.13;5010510;28;20230;-85
2023/09/08 06:20:45;;;;;;;8.77;7.93;;;;;;;19.02;72.51;95843.38;5010796;28;20202;-85
2023/09/08 06:23:12;;;;;;;8.95;8.05;;;;;;;19.10;72.27;95833.38;5020963;28;20241;-85
2023/09/08 06:25:38;;;;;;;8.95;8.15;;;;;;;19.19;71.96;95823.44;5010890;28;20223;-86
2023/09/08 06:28:05;;;;;;;10.55;8.45;;;;;;;19.21;72.14;95831.84;5008316;28;20231;-86
2023/09/08 06:30:32;;;;;;;9.73;8.82;;;;;;;19.35;71.16;95814.94;5009942;28;20214;-85
2023/09/08 06:32:58;;;;;;;9.27;8.30;;;;;;;19.53;70.87;95803.63;4997000;28;20199;-85
2023/09/08 06:35:27;;;;;;;9.05;8.25;;;;;;;19.64;70.53;95789.75;5009309;28;20238;-86
2023/09/08 06:37:54;;;;;;;9.88;8.93;;;;;;;19.79;70.55;95791.94;5020416;28;20199;-86
2023/09/08 06:40:20;;;;;;;9.40;8.32;;;;;;;19.86;70.29;95798.59;4990870;28;20738;-85
2023/09/08 06:42:47;;;;;;;12.55;11.40;;;;;;;20.02;69.95;95784.03;4996991;28;20668;-86
2023/09/08 06:45:13;;;;;;;13.90;11.45;;;;;;;20.17;69.42;95773.09;5005228;28;20234;-86
2023/09/08 06:47:40;;;;;;;10.68;9.02;;;;;;;20.25;68.94;95764.88;5010159;28;20834;-86
2023/09/08 06:50:07;;;;;;;8.68;7.88;;;;;;;20.43;68.92;95771.78;5010264;28;20207;-85
2023/09/08 06:52:35;;;;;;;9.25;7.35;;;;;;;20.59;68.18;95756.13;5008480;28;20285;-86
2023/09/08 06:55:01;;;;;;;8.05;7.38;;;;;;;20.73;67.75;95727.06;5009032;28;20217;-86
2023/09/08 06:57:28;;;;;;;8.68;7.95;;;;;;;20.86;67.42;95721.53;5009527;28;20217;-85
2023/09/08 06:59:54;;;;;;;8.15;7.35;;;;;;;20.92;67.62;95731.84;5007883;28;20207;-85
2023/09/08 07:02:48;;;;;;;11.50;7.47;;;;;;;21.10;66.91;95709.88;5000286;28;20254;-86
2023/09/08 07:07:59;;;;;;;8.77;8.05;;;;;;;21.53;64.90;95653.41;4999475;28;20206;-85
2023/09/08 07:10:26;;;;;;;8.65;7.50;;;;;;;21.69;64.51;95642.84;5000505;28;20204;-85
2023/09/08 07:12:52;;;;;;;10.27;8.50;;;;;;;21.84;64.10;95621.25;4999224;28;20217;-86
2023/09/08 07:15:19;;;;;;;9.10;8.20;;;;;;;21.95;63.54;95594.09;5009690;28;20420;-85
2023/09/08 07:17:45;;;;;;;9.30;8.13;;;;;;;22.10;62.78;95583.00;5004072;28;20666;-86
2023/09/08 07:20:12;;;;;;;8.65;7.75;;;;;;;22.19;62.54;95573.63;5009069;28;20198;-85
2023/09/08 07:22:38;;;;;;;8.93;8.02;;;;;;;22.41;62.72;95578.81;5008526;28;20702;-85
2023/09/08 07:25:08;;;;;;;10.30;9.05;;;;;;;22.44;63.41;95616.88;5008852;28;20219;-85
2023/09/08 07:27:48;;;;;;;9.32;8.50;;;;;;;22.65;62.50;95602.88;5006203;28;20302;-85
2023/09/08 07:30:14;;;;;;;9.13;8.23;;;;;;;22.77;62.33;95572.00;4958026;28;20802;-86
2023/09/08 07:32:41;;;;;;;8.70;7.72;;;;;;;23.00;61.37;95531.44;5000353;28;20732;-85
2023/09/08 07:35:13;;;;;;;9.77;7.35;;;;;;;23.27;60.35;95505.81;5005675;28;20227;-86
2023/09/08 07:37:40;;;;;;;8.35;7.50;;;;;;;23.46;59.92;95487.72;5009426;28;20787;-86
2023/09/08 07:40:10;;;;;;;9.05;8.07;;;;;;;23.65;59.28;95459.94;5008543;28;20205;-86
2023/09/08 07:42:37;;;;;;;17.05;15.32;;;;;;;23.84;59.52;95478.63;5008641;28;20211;-87
2023/09/08 07:45:04;;;;;;;8.75;8.00;;;;;;;23.95;59.80;95484.66;5009020;28;20231;-87
2023/09/08 07:47:30;;;;;;;8.55;7.75;;;;;;;24.09;59.76;95502.28;5008426;28;20207;-86
2023/09/08 07:50:19;;;;;;;8.10;7.40;;;;;;;24.37;59.35;95481.78;5004338;28;20211;-86
2023/09/08 07:52:45;;;;;;;10.85;7.65;;;;;;;24.52;58.17;95436.19;5007983;28;20711;-86
2023/09/08 07:55:13;;;;;;;8.32;7.55;;;;;;;24.37;58.01;95419.41;5008511;28;20227;-86
2023/09/08 07:57:40;;;;;;;8.55;7.80;;;;;;;24.54;58.38;95439.34;5008800;28;20203;-87
2023/09/08 08:00:10;;;;;;;8.45;7.70;;;;;;;24.58;57.96;95430.66;5006352;28;20199;-87
2023/09/08 08:02:37;;;;;;;8.75;7.85;;;;;;;24.68;57.42;95400.88;4997452;28;20301;-87
2023/09/08 08:05:03;;;;;;;8.25;7.55;;;;;;;24.88;57.08;95400.00;5008192;28;20218;-86
2023/09/08 08:07:31;;;;;;;7.90;7.10;;;;;;;25.04;57.59;95414.69;5008072;28;20213;-86
2023/09/08 08:09:57;;;;;;;7.60;6.90;;;;;;;25.29;57.15;95411.13;5000377;28;20235;-86
2023/09/08 08:12:25;;;;;;;10.73;7.75;;;;;;;25.50;56.02;95353.78;5007483;28;20202;-87
2023/09/08 08:14:51;;;;;;;8.80;7.90;;;;;;;25.55;54.98;95319.47;5007567;28;20734;-86
2023/09/08 08:17:19;;;;;;;8.23;7.53;;;;;;;25.59;54.59;95292.28;5005683;28;20278;-87
2023/09/08 08:19:48;;;;;;;7.40;6.90;;;;;;;25.77;54.41;95294.25;4996828;28;20583;-87
2023/09/08 08:22:15;;;;;;;8.90;7.30;;;;;;;25.93;54.73;95294.88;4998868;28;20230;-87
2023/09/08 08:24:41;;;;;;;7.70;6.95;;;;;;;26.06;54.14;95257.25;5006522;28;20727;-86
2023/09/08 08:27:08;;;;;;;8.60;7.65;;;;;;;26.07;53.25;95208.69;5007920;28;20198;-86
2023/09/08 08:29:36;;;;;;;7.80;7.10;;;;;;;25.95;54.53;95274.28;4993807;28;20282;-86
2023/09/08 08:32:02;;;;;;;10.05;9.05;;;;;;;26.09;55.14;95311.31;5007196;28;20682;-86
2023/09/08 08:34:29;;;;;;;29.42;26.92;;;;;;;26.32;54.49;95288.66;4997782;28;20969;-86
2023/09/08 08:36:55;;;;;;;7.70;7.10;;;;;;;26.33;53.13;95230.31;4988543;28;20199;-86
2023/09/08 08:39:21;;;;;;;8.50;7.57;;;;;;;26.16;53.24;95206.22;5003277;28;20229;-87
2023/09/08 08:41:48;;;;;;;7.90;7.10;;;;;;;26.19;54.12;95271.59;5007585;28;20206;-86
2023/09/08 08:44:16;;;;;;;7.15;6.45;;;;;;;26.44;53.13;95230.94;5007208;28;20677;-87
2023/09/08 08:46:48;;;;;;;8.30;7.45;;;;;;;26.45;52.28;95179.69;5008338;28;20238;-86
2023/09/08 08:49:16;;;;;;;7.18;6.57;;;;;;;26.72;51.79;95153.41;5004013;28;20294;-87
2023/09/08 08:51:45;;;;;;;7.50;6.90;;;;;;;26.80;52.17;95163.31;5007308;28;20206;-86
2023/09/08 08:54:13;;;;;;;7.95;6.60;;;;;;;26.86;52.37;95171.16;5007060;28;20198;-86
2023/09/08 08:56:40;;;;;;;7.47;6.57;;;;;;;26.91;52.68;95200.94;5007066;28;20207;-86
2023/09/08 08:59:07;;;;;;;6.85;6.25;;;;;;;27.04;51.38;95144.72;4991405;28;20742;-88
2023/09/08 09:01:34;;;;;;;6.80;6.00;;;;;;;27.33;51.26;95147.09;4997482;28;20849;-86
2023/09/08 09:04:05;;;;;;;6.75;6.15;;;;;;;27.65;51.14;95145.47;5002732;28;20361;-86
2023/09/08 09:06:32;;;;;;;7.30;6.38;;;;;;;27.89;50.83;95110.88;5001362;28;20254;-87
2023/09/08 09:09:00;;;;;;;8.73;6.65;;;;;;;28.03;50.07;95083.28;5009465;28;20229;-87
2023/09/08 09:11:27;;;;;;;6.45;5.90;;;;;;;28.27;49.89;95071.66;5011260;28;20207;-86
2023/09/08 09:13:53;;;;;;;13.95;12.80;;;;;;;28.42;49.43;95053.53;5011697;28;20205;-86
2023/09/08 09:16:20;;;;;;;11.35;10.32;;;;;;;28.60;49.20;95032.47;5011846;28;20229;-85
2023/09/08 09:18:56;;;;;;;12.90;10.13;;;;;;;28.71;48.82;95010.69;5006908;28;20209;-87
2023/09/08 09:21:24;;;;;;;8.07;7.22;;;;;;;28.71;48.72;94992.13;4998230;28;20301;-87
2023/09/08 09:23:51;;;;;;;8.18;6.75;;;;;;;28.88;49.14;95008.13;4989937;28;20234;-87
2023/09/08 09:26:25;;;;;;;8.80;8.05;;;;;;;28.90;48.70;94997.22;5011348;28;20312;-86
2023/09/08 09:28:53;;;;;;;9.90;9.00;;;;;;;29.00;48.41;94969.69;5009812;28;20205;-86
2023/09/08 09:31:23;;;;;;;7.18;6.53;;;;;;;28.96;47.26;94931.63;5010945;28;20199;-86
2023/09/08 09:34:02;;;;;;;7.22;6.53;;;;;;;28.92;47.83;94923.50;5010920;28;20304;-87
2023/09/08 09:36:30;;;;;;;7.53;6.88;;;;;;;29.03;46.89;94913.41;5011296;28;20726;-87
2023/09/08 09:38:59;;;;;;;7.55;6.20;;;;;;;29.03;47.39;94911.53;4998181;28;20210;-86
2023/09/08 09:41:27;;;;;;;7.18;6.68;;;;;;;28.96;47.11;94897.94;4991845;28;20207;-87
2023/09/08 09:43:54;;;;;;;7.03;6.32;;;;;;;29.06;47.83;94934.75;5008998;28;20234;-86
2023/09/08 09:46:21;;;;;;;7.18;6.57;;;;;;;29.15;46.54;94887.03;5010615;28;20222;-85
2023/09/08 09:48:51;;;;;;;6.93;5.82;;;;;;;29.24;47.22;94922.31;5010663;28;20200;-86
2023/09/08 09:51:20;;;;;;;7.30;6.70;;;;;;;29.31;47.52;94948.38;5010849;28;20215;-86
2023/09/08 09:53:50;;;;;;;7.15;6.40;;;;;;;29.42;46.98;94915.19;5006452;28;20557;-86
2023/09/08 09:56:17;;;;;;;6.78;6.18;;;;;;;29.45;47.40;94917.19;5001281;28;20227;-85
2023/09/08 09:58:46;;;;;;;8.63;6.07;;;;;;;29.54;47.41;94928.59;5008627;28;20247;-85
2023/09/08 10:01:16;;;;;;;10.57;6.38;;;;;;;29.55;46.54;94879.75;5009996;28;20218;-85
2023/09/08 10:03:43;;;;;;;6.88;6.38;;;;;;;29.43;46.80;94880.38;5010505;28;20223;-86
2023/09/08 10:06:10;;;;;;;12.43;11.23;;;;;;;29.44;46.80;94863.34;5010426;28;20309;-86
2023/09/08 10:08:37;;;;;;;12.00;10.90;;;;;;;29.49;46.76;94857.91;5006923;28;20203;-86
2023/09/08 10:11:08;;;;;;;7.97;7.28;;;;;;;29.57;46.22;94832.47;4995488;28;20637;-86
2023/09/08 10:13:46;;;;;;;7.07;6.43;;;;;;;29.54;45.93;94814.50;5009165;28;20277;-85
2023/09/08 10:16:16;;;;;;;7.25;6.22;;;;;;;29.46;44.96;94773.63;5000227;28;20250;-86
2023/09/08 10:18:45;;;;;;;7.25;6.15;;;;;;;29.46;45.17;94755.06;5008713;28;20206;-86
2023/09/08 10:21:14;;;;;;;6.82;6.10;;;;;;;29.37;45.11;94761.47;5011331;28;20218;-87
2023/09/08 10:23:43;;;;;;;7.30;6.22;;;;;;;29.21;46.30;94822.16;5010375;28;20245;-86
2023/09/08 10:26:12;;;;;;;6.50;5.88;;;;;;;29.11;46.49;94844.47;5003103;28;20230;-86
2023/09/08 10:28:39;;;;;;;7.18;5.65;;;;;;;29.12;46.75;94858.50;4999875;28;20219;-87
2023/09/08 10:31:08;;;;;;;6.50;5.90;;;;;;;29.18;46.80;94881.13;4995419;28;20194;-86
2023/09/08 10:33:36;;;;;;;8.23;6.70;;;;;;;29.06;46.75;94852.56;5006395;28;20195;-86
2023/09/08 10:36:05;;;;;;;6.68;6.18;;;;;;;28.98;47.12;94871.13;5006174;28;20226;-86
2023/09/08 10:38:34;;;;;;;6.50;5.90;;;;;;;28.83;48.07;94934.09;5006457;28;20596;-87
2023/09/08 10:41:32;;;;;;;7.00;6.40;;;;;;;28.96;48.09;94956.25;5008328;28;20222;-86
2023/09/08 10:44:02;;;;;;;6.65;6.05;;;;;;;28.86;46.76;94861.13;5002334;28;20261;-86
2023/09/08 10:46:31;;;;;;;13.85;12.68;;;;;;;28.78;46.39;94812.28;5006655;28;20199;-86
2023/09/08 10:49:04;;;;;;;8.80;7.97;;;;;;;28.73;46.37;94825.69;5010615;28;20207;-86
2023/09/08 10:51:30;;;;;;;7.00;6.40;;;;;;;28.83;46.74;94849.28;5009599;28;20210;-86
2023/09/08 10:53:57;;;;;;;6.35;5.85;;;;;;;28.89;46.72;94852.53;5010311;28;20209;-87
2023/09/08 10:56:30;;;;;;;5.97;5.47;;;;;;;28.76;46.75;94850.78;5009688;28;20218;-86
2023/09/08 10:59:01;;;;;;;5.63;5.20;;;;;;;28.90;47.51;94885.91;5004764;28;20210;-86
2023/09/08 11:01:28;;;;;;;6.43;5.45;;;;;;;28.87;47.89;94902.44;5010369;28;20294;-86
2023/09/08 11:04:05;;;;;;;6.38;5.70;;;;;;;28.86;47.69;94887.63;5009965;28;20222;-86
2023/09/08 11:06:34;;;;;;;6.22;5.60;;;;;;;28.92;47.26;94889.03;5008019;28;20210;-85
2023/09/08 11:09:16;;;;;;;6.38;5.65;;;;;;;28.96;47.96;94934.25;5006769;28;20211;-86
2023/09/08 11:11:49;;;;;;;6.70;5.90;;;;;;;28.65;47.23;94862.78;5000977;28;20199;-86
2023/09/08 11:14:22;;;;;;;6.35;5.72;;;;;;;28.72;48.58;94950.53;5004218;28;20625;-87
2023/09/08 11:16:48;;;;;;;6.05;5.55;;;;;;;28.78;48.58;94950.09;5009206;28;20245;-87
2023/09/08 11:19:17;;;;;;;6.88;5.72;;;;;;;28.83;47.96;94914.75;5008602;28;20282;-87
2023/09/08 11:21:44;;;;;;;6.68;5.95;;;;;;;28.81;47.84;94906.31;5009434;28;20195;-87
2023/09/08 11:24:18;;;;;;;6.15;5.57;;;;;;;28.88;48.11;94911.94;5009474;28;20313;-86
2023/09/08 11:26:51;;;;;;;6.28;5.78;;;;;;;29.00;47.83;94914.78;4980626;28;20211;-87
2023/09/08 11:29:18;;;;;;;6.75;6.15;;;;;;;28.97;47.20;94886.25;4992666;28;20269;-87
2023/09/08 11:31:47;;;;;;;6.47;5.88;;;;;;;29.02;47.00;94874.72;5000414;28;20262;-86
2023/09/08 11:34:17;;;;;;;5.78;5.28;;;;;;;29.05;47.81;94913.88;5003352;28;20213;-83
2023/09/08 11:36:53;;;;;;;6.72;6.03;;;;;;;29.08;47.65;94911.34;5001959;28;20286;-86